KHPN/HPN METAR and TAF weather

Enter ICAO airport designator
Station Type Date Time Source
KHPN METAR 2020/07/15 03:56 UTC NOAA

KHPN 150356Z 31006KT 10SM CLR 19/18 A3007 RMK AO2 SLP177 T01940178


Station Type Date Time Source
KHPN Decoded METAR 2020/07/15 03:56 UTC NOAA

WHITE PLAINS WESTCHESTER, NY, United States (KHPN) 41-04N 073-42W 121M
Jul 14, 2020 - 11:56 PM EDT / 2020.07.15 0356 UTC
Wind: from the NW (310 degrees) at 7 MPH (6 KT):0
Visibility: 10 mile(s):0
Sky conditions: clear
Temperature: 66.9 F (19.4 C)
Dew Point: 64.0 F (17.8 C)
Relative Humidity: 90%
Pressure (altimeter): 30.07 in. Hg (1018 hPa)
ob: KHPN 150356Z 31006KT 10SM CLR 19/18 A3007 RMK AO2 SLP177 T01940178
cycle: 4

Station Type Date Time Source
KHPN TAF 2020/07/15 03:33 UTC NOAA

TAF
AMD KHPN 150230Z 1503/1524 35004KT P6SM SCT050
FM150900 36004KT P6SM FEW025 BKN035
FM151300 06005KT P6SM FEW025 BKN035
FM151600 12006KT P6SM FEW025 BKN050
FM151900 13006KT P6SM SCT050 SCT250
AMD NOT SKED

Example: see airport list